Time;durP1;ratioP1;P1;durP2;ratioP2;P2;SDS_P1;SDS_P2;PMS_P1;PMS_P2;Temp;Humidity;BMP_temperature;BMP_pressure;BME280_temperature;BME280_humidity;BME280_pressure;Samples;Min_cycle;Max_cycle;Signal;HPM_P1;HPM_P2
2023/03/08 00:00:50;;;;;;;29.38;16.73;;;;;;;5.94;100.00;99418.28;5129801;27;20050;-74
2023/03/08 00:03:15;;;;;;;30.55;17.98;;;;;;;5.97;100.00;99428.28;5126704;27;20430;-74
2023/03/08 00:05:41;;;;;;;31.15;16.85;;;;;;;5.72;100.00;99390.97;5128825;27;20026;-74
2023/03/08 00:08:06;;;;;;;34.20;16.13;;;;;;;6.08;100.00;99444.25;5129272;27;20015;-74
2023/03/08 00:10:32;;;;;;;32.70;16.25;;;;;;;6.09;100.00;99451.88;5128475;27;20477;-74
2023/03/08 00:12:57;;;;;;;28.85;16.65;;;;;;;6.06;100.00;99447.09;5127317;27;20026;-74
2023/03/08 00:15:22;;;;;;;27.15;15.57;;;;;;;6.02;100.00;99437.31;5128416;27;20047;-74
2023/03/08 00:17:48;;;;;;;28.50;16.52;;;;;;;6.00;100.00;99421.03;5127694;27;20408;-72
2023/03/08 00:20:14;;;;;;;29.58;16.08;;;;;;;5.97;100.00;99430.91;5106806;27;20027;-74
2023/03/08 00:22:40;;;;;;;28.88;16.70;;;;;;;6.05;100.00;99440.25;5111196;27;20035;-74
2023/03/08 00:25:07;;;;;;;28.67;16.60;;;;;;;5.93;100.00;99421.88;5128005;27;20027;-72
2023/03/08 00:27:34;;;;;;;29.50;16.23;;;;;;;5.91;100.00;99423.94;5126771;27;20648;-72
2023/03/08 00:29:59;;;;;;;30.27;16.52;;;;;;;5.97;100.00;99438.75;5127652;27;20600;-73
2023/03/08 00:32:25;;;;;;;27.67;16.75;;;;;;;5.90;100.00;99443.22;5125841;27;20023;-72
2023/03/08 00:34:51;;;;;;;37.88;19.25;;;;;;;5.89;100.00;99443.44;5100849;27;20146;-73
2023/03/08 00:37:17;;;;;;;36.17;19.17;;;;;;;5.85;100.00;99432.63;5106262;27;20101;-74
2023/03/08 00:39:42;;;;;;;33.10;18.10;;;;;;;5.89;100.00;99427.75;5125063;27;20106;-73
2023/03/08 00:42:08;;;;;;;30.55;17.23;;;;;;;5.87;100.00;99417.53;5128326;27;20076;-73
2023/03/08 00:44:33;;;;;;;35.85;18.08;;;;;;;5.91;100.00;99429.16;5123280;27;20030;-73
2023/03/08 00:46:58;;;;;;;34.20;18.67;;;;;;;5.89;100.00;99430.34;5109937;27;20027;-73
2023/03/08 00:49:25;;;;;;;30.55;17.95;;;;;;;5.82;100.00;99419.19;5109583;27;20031;-74
2023/03/08 00:51:50;;;;;;;30.83;17.90;;;;;;;5.88;100.00;99432.19;5127197;27;20034;-73
2023/03/08 00:54:15;;;;;;;35.97;18.50;;;;;;;5.82;100.00;99411.34;5125667;27;20027;-73
2023/03/08 00:56:41;;;;;;;32.15;17.77;;;;;;;5.73;100.00;99401.19;5108918;27;20389;-75
2023/03/08 00:59:06;;;;;;;32.38;17.70;;;;;;;5.84;100.00;99417.16;5128209;27;20038;-73
2023/03/08 01:01:32;;;;;;;33.70;16.52;;;;;;;5.59;100.00;99378.06;5126411;27;20408;-72
2023/03/08 01:03:58;;;;;;;33.88;16.25;;;;;;;5.73;100.00;99422.09;5127539;27;20034;-73
2023/03/08 01:06:23;;;;;;;29.02;15.70;;;;;;;5.61;100.00;99400.31;5122894;27;20041;-74
2023/03/08 01:08:49;;;;;;;30.17;16.25;;;;;;;5.64;100.00;99401.69;5128078;27;20035;-73
2023/03/08 01:11:17;;;;;;;28.25;15.95;;;;;;;5.69;100.00;99420.13;5124433;27;20029;-72
2023/03/08 01:13:42;;;;;;;26.17;16.08;;;;;;;5.66;100.00;99410.13;5126586;27;20071;-72
2023/03/08 01:16:17;;;;;;;28.02;16.13;;;;;;;5.66;100.00;99416.13;5125265;27;20063;-73
2023/03/08 01:18:43;;;;;;;28.20;16.25;;;;;;;5.54;100.00;99389.94;5127386;27;20039;-73
2023/03/08 01:21:10;;;;;;;29.20;16.35;;;;;;;5.57;100.00;99395.75;5126298;27;20469;-73
2023/03/08 01:23:35;;;;;;;29.55;16.90;;;;;;;5.57;100.00;99399.16;5125395;27;20102;-72
2023/03/08 01:26:06;;;;;;;33.80;17.52;;;;;;;5.53;100.00;99390.16;5126400;27;20106;-73
2023/03/08 01:28:33;;;;;;;24.63;14.85;;;;;;;5.59;100.00;99406.78;5127665;27;20031;-73
2023/03/08 01:31:13;;;;;;;25.58;15.60;;;;;;;5.58;100.00;99416.44;5124812;27;20080;-73
2023/03/08 01:33:38;;;;;;;29.60;15.52;;;;;;;5.52;100.00;99399.81;5125911;27;20022;-73
2023/03/08 01:36:06;;;;;;;31.38;16.15;;;;;;;5.57;100.00;99416.63;5124930;27;20398;-73
2023/03/08 01:38:31;;;;;;;29.02;16.75;;;;;;;5.35;100.00;99388.31;5124858;27;20092;-74
2023/03/08 01:40:58;;;;;;;30.98;17.00;;;;;;;5.56;100.00;99415.06;5106941;27;20058;-74
2023/03/08 01:43:36;;;;;;;30.13;16.23;;;;;;;5.50;100.00;99414.09;5125512;27;20035;-74
2023/03/08 01:46:14;;;;;;;29.88;16.50;;;;;;;5.13;100.00;99359.22;5123248;27;20015;-74
2023/03/08 01:48:46;;;;;;;29.80;16.50;;;;;;;5.51;100.00;99424.31;5125963;27;20037;-74
2023/03/08 01:51:16;;;;;;;33.38;16.75;;;;;;;5.48;100.00;99418.72;5126029;27;20030;-74
2023/03/08 01:53:42;;;;;;;30.38;16.58;;;;;;;5.46;100.00;99418.13;5127361;27;20031;-74
2023/03/08 01:56:12;;;;;;;30.33;15.52;;;;;;;5.35;100.00;99421.47;5124204;27;20114;-74
2023/03/08 01:58:44;;;;;;;31.63;17.42;;;;;;;5.33;100.00;99414.63;5127506;27;20557;-73
2023/03/08 02:01:09;;;;;;;29.40;17.33;;;;;;;5.36;100.00;99421.25;5125495;27;20657;-74
2023/03/08 02:03:35;;;;;;;30.52;16.80;;;;;;;5.28;100.00;99414.47;5126807;27;20172;-73
2023/03/08 02:06:01;;;;;;;31.85;17.33;;;;;;;5.21;100.00;99407.72;5124705;27;21257;-74
2023/03/08 02:08:27;;;;;;;32.58;17.40;;;;;;;5.24;100.00;99408.13;5127442;27;20023;-74
2023/03/08 02:10:53;;;;;;;28.00;16.08;;;;;;;5.22;100.00;99401.47;5106685;28;20362;-74
2023/03/08 02:13:19;;;;;;;29.25;16.48;;;;;;;5.24;100.00;99413.34;5105148;28;20112;-74
2023/03/08 02:15:45;;;;;;;29.52;16.25;;;;;;;5.27;100.00;99414.72;5125834;27;20447;-74
2023/03/08 02:18:10;;;;;;;31.60;16.63;;;;;;;5.24;100.00;99412.50;5111021;28;20039;-73
2023/03/08 02:20:39;;;;;;;26.38;15.52;;;;;;;5.22;100.00;99420.56;5125554;28;20633;-74
2023/03/08 02:23:13;;;;;;;30.55;16.25;;;;;;;5.23;100.00;99424.78;5107641;28;20034;-74
2023/03/08 02:25:39;;;;;;;30.33;15.82;;;;;;;5.23;100.00;99426.59;5122095;28;20484;-73
2023/03/08 02:28:05;;;;;;;26.60;15.68;;;;;;;5.21;100.00;99437.22;5102534;28;20038;-73
2023/03/08 02:30:33;;;;;;;29.88;15.40;;;;;;;5.18;100.00;99424.63;5121383;28;20020;-74
2023/03/08 02:32:59;;;;;;;32.45;17.08;;;;;;;5.14;100.00;99425.25;5126412;28;20019;-73
2023/03/08 02:35:25;;;;;;;28.75;15.23;;;;;;;5.15;100.00;99426.84;5124367;28;20488;-73
2023/03/08 02:37:50;;;;;;;29.77;16.40;;;;;;;5.19;100.00;99438.47;5125019;28;20553;-73
2023/03/08 02:40:15;;;;;;;27.65;15.80;;;;;;;5.12;100.00;99435.91;5124854;28;20035;-72
2023/03/08 02:42:41;;;;;;;28.52;15.60;;;;;;;5.11;100.00;99437.72;5126021;28;20537;-73
2023/03/08 02:45:07;;;;;;;28.27;15.90;;;;;;;5.16;100.00;99444.13;5125550;28;20022;-73
2023/03/08 02:47:32;;;;;;;28.48;15.68;;;;;;;5.12;100.00;99441.13;5122739;28;20033;-74
2023/03/08 02:49:58;;;;;;;30.15;15.50;;;;;;;5.08;100.00;99439.97;5109795;28;20468;-73
2023/03/08 02:52:23;;;;;;;26.02;15.00;;;;;;;5.11;100.00;99442.94;5124599;28;20032;-73
2023/03/08 02:54:49;;;;;;;29.27;14.65;;;;;;;5.09;100.00;99436.31;5126458;28;20015;-73
2023/03/08 02:57:14;;;;;;;27.38;15.25;;;;;;;5.07;100.00;99430.50;5125647;28;20034;-73
2023/03/08 02:59:39;;;;;;;28.17;15.60;;;;;;;5.06;100.00;99436.75;5107866;28;20177;-73
2023/03/08 03:02:05;;;;;;;27.27;15.30;;;;;;;5.09;100.00;99442.34;5126844;28;20030;-73
2023/03/08 03:04:32;;;;;;;31.25;14.80;;;;;;;5.13;100.00;99445.34;5126200;28;20031;-73
2023/03/08 03:06:58;;;;;;;27.33;15.07;;;;;;;5.12;100.00;99446.34;5124756;28;20031;-73
2023/03/08 03:09:24;;;;;;;27.95;15.25;;;;;;;5.12;100.00;99454.16;5126844;28;20104;-73
2023/03/08 03:11:50;;;;;;;31.05;15.10;;;;;;;5.07;100.00;99444.34;5126340;28;20058;-73
2023/03/08 03:14:15;;;;;;;28.48;15.80;;;;;;;4.98;100.00;99439.63;5125798;27;20102;-74
2023/03/08 03:16:41;;;;;;;25.50;14.48;;;;;;;4.96;100.00;99447.66;5110062;28;20142;-73
2023/03/08 03:19:06;;;;;;;24.77;14.73;;;;;;;5.00;100.00;99453.25;5105732;28;20023;-73
2023/03/08 03:21:32;;;;;;;25.83;15.30;;;;;;;4.95;100.00;99453.09;5105687;28;20538;-73
2023/03/08 03:23:57;;;;;;;27.63;15.90;;;;;;;4.96;100.00;99450.28;5127657;27;20652;-74
2023/03/08 03:26:23;;;;;;;30.83;16.40;;;;;;;5.01;100.00;99460.09;5127772;27;20023;-74
2023/03/08 03:28:51;;;;;;;32.72;16.75;;;;;;;5.00;100.00;99463.69;5130030;27;20500;-73
2023/03/08 03:31:20;;;;;;;31.48;16.83;;;;;;;5.00;100.00;99464.47;5110841;27;20122;-72
2023/03/08 03:33:46;;;;;;;33.03;17.83;;;;;;;5.02;100.00;99466.88;5128633;27;20027;-73
2023/03/08 03:36:15;;;;;;;31.42;16.95;;;;;;;4.99;100.00;99464.72;5129154;27;20027;-73
2023/03/08 03:38:40;;;;;;;37.53;17.90;;;;;;;4.92;100.00;99459.53;5127662;27;20031;-73
2023/03/08 03:41:18;;;;;;;34.58;17.30;;;;;;;5.06;99.91;99483.72;5107777;27;20040;-73
2023/03/08 03:43:44;;;;;;;38.40;18.75;;;;;;;4.95;99.80;99466.91;5127019;27;20052;-74
2023/03/08 03:46:12;;;;;;;34.97;19.20;;;;;;;5.04;99.85;99483.13;5128461;27;20023;-73
2023/03/08 03:48:38;;;;;;;36.53;19.83;;;;;;;4.96;99.82;99473.75;5128440;27;20027;-73
2023/03/08 03:51:11;;;;;;;38.15;19.83;;;;;;;5.06;100.00;99484.53;5129426;27;20033;-73
2023/03/08 03:53:36;;;;;;;37.60;19.05;;;;;;;5.05;99.57;99476.88;5130542;27;20499;-74
2023/03/08 03:56:07;;;;;;;38.75;19.58;;;;;;;5.02;99.98;99474.72;5129331;27;20023;-74
2023/03/08 03:58:33;;;;;;;36.47;19.77;;;;;;;5.07;100.00;99477.47;5127744;27;20905;-73
2023/03/08 04:00:59;;;;;;;38.05;19.73;;;;;;;5.09;99.66;99488.50;5129137;27;20027;-73
2023/03/08 04:03:24;;;;;;;42.05;20.20;;;;;;;5.09;99.86;99498.94;5130312;27;20095;-73
2023/03/08 04:05:50;;;;;;;35.00;19.65;;;;;;;5.08;99.36;99487.72;5128288;27;20110;-73
2023/03/08 04:08:15;;;;;;;34.33;19.25;;;;;;;5.14;99.68;99499.13;5130339;27;20019;-73
2023/03/08 04:10:41;;;;;;;36.75;20.88;;;;;;;5.14;99.36;99500.94;5129269;27;20426;-72
2023/03/08 04:13:10;;;;;;;37.72;20.38;;;;;;;5.17;99.62;99506.53;5130053;27;20068;-74
2023/03/08 04:15:35;;;;;;;41.40;20.83;;;;;;;5.16;99.53;99507.53;5125899;27;20405;-74
2023/03/08 04:18:00;;;;;;;37.63;20.83;;;;;;;5.08;99.81;99497.38;5128465;27;20031;-73
2023/03/08 04:20:26;;;;;;;36.75;20.05;;;;;;;5.04;99.33;99496.19;5126488;27;20023;-73
2023/03/08 04:22:51;;;;;;;36.72;20.20;;;;;;;5.18;99.53;99513.34;5106412;27;20022;-73
2023/03/08 04:25:17;;;;;;;36.30;19.67;;;;;;;5.10;99.09;99498.75;5111806;27;20570;-73
2023/03/08 04:27:43;;;;;;;41.80;21.30;;;;;;;5.21;99.09;99515.53;5108587;27;20665;-74
2023/03/08 04:30:09;;;;;;;38.25;20.13;;;;;;;5.14;99.06;99506.16;5110261;27;20068;-73
2023/03/08 04:32:35;;;;;;;38.42;19.95;;;;;;;5.20;99.15;99513.16;5125496;27;20059;-73
2023/03/08 04:35:00;;;;;;;36.70;19.05;;;;;;;5.18;98.86;99502.91;5109255;27;20050;-73
2023/03/08 04:37:25;;;;;;;33.88;17.63;;;;;;;5.26;99.18;99513.06;5126951;27;20068;-73
2023/03/08 04:39:51;;;;;;;29.27;17.17;;;;;;;5.23;99.26;99507.50;5107008;27;20023;-74
2023/03/08 04:42:16;;;;;;;31.83;17.35;;;;;;;5.22;99.16;99504.09;5124373;27;20023;-74
2023/03/08 04:44:42;;;;;;;30.08;17.45;;;;;;;5.22;99.19;99500.66;5128672;27;20031;-73
2023/03/08 04:47:07;;;;;;;29.70;17.13;;;;;;;5.35;98.88;99512.84;5127754;27;20023;-73
2023/03/08 04:49:32;;;;;;;31.73;17.25;;;;;;;5.31;98.64;99507.22;5122384;27;20103;-73
2023/03/08 04:51:58;;;;;;;33.42;16.70;;;;;;;5.32;98.86;99509.63;5108222;27;20062;-73
2023/03/08 04:54:23;;;;;;;32.67;16.98;;;;;;;5.41;98.47;99531.06;5107126;27;20101;-74
2023/03/08 04:56:49;;;;;;;34.58;16.98;;;;;;;5.46;98.34;99519.97;5124468;27;20110;-74
2023/03/08 04:59:14;;;;;;;33.05;17.88;;;;;;;5.42;98.56;99508.38;5127474;27;20027;-73
2023/03/08 05:01:41;;;;;;;36.92;18.83;;;;;;;5.52;98.22;99530.38;5105321;27;20046;-71
2023/03/08 05:04:09;;;;;;;32.35;17.73;;;;;;;5.56;98.04;99530.75;5122274;27;20027;-72
2023/03/08 05:06:35;;;;;;;36.30;18.05;;;;;;;5.47;98.16;99514.53;5127632;27;20027;-71
2023/03/08 05:09:00;;;;;;;33.00;18.38;;;;;;;5.60;97.57;99534.50;5126953;27;20023;-71
2023/03/08 05:11:27;;;;;;;31.73;17.02;;;;;;;5.63;97.41;99530.72;5127312;27;20023;-72
2023/03/08 05:13:54;;;;;;;33.67;18.48;;;;;;;5.63;97.60;99528.88;5108677;27;20075;-75
2023/03/08 05:16:20;;;;;;;34.05;17.30;;;;;;;5.60;97.22;99520.66;5107728;27;20500;-74
2023/03/08 05:18:45;;;;;;;32.30;17.23;;;;;;;5.66;97.31;99532.88;5107298;28;20085;-74
2023/03/08 05:21:14;;;;;;;32.25;16.77;;;;;;;5.63;96.99;99531.50;5104859;28;20081;-74
2023/03/08 05:23:40;;;;;;;31.10;14.93;;;;;;;5.69;96.47;99532.44;5105641;28;20058;-74
2023/03/08 05:26:09;;;;;;;30.48;14.88;;;;;;;5.61;96.48;99515.25;5104352;28;20097;-73
2023/03/08 05:28:40;;;;;;;25.45;14.80;;;;;;;5.74;96.56;99541.22;5106178;28;20071;-74
2023/03/08 05:31:07;;;;;;;29.95;14.68;;;;;;;5.76;95.61;99549.66;5106070;28;20035;-73
2023/03/08 05:33:34;;;;;;;30.40;13.75;;;;;;;5.78;95.37;99546.84;5121629;27;20114;-74
2023/03/08 05:36:00;;;;;;;26.40;14.82;;;;;;;5.74;95.37;99533.38;5103321;28;20036;-74
2023/03/08 05:38:26;;;;;;;25.83;13.82;;;;;;;5.74;95.06;99529.97;5107021;28;20034;-74
2023/03/08 05:40:51;;;;;;;30.92;14.90;;;;;;;5.83;94.79;99541.75;5103406;28;20538;-74
2023/03/08 05:43:18;;;;;;;25.63;13.38;;;;;;;6.10;94.87;99581.53;5105561;28;20043;-74
2023/03/08 05:45:56;;;;;;;26.02;13.63;;;;;;;5.87;94.75;99547.38;5105933;28;20020;-74
2023/03/08 05:48:22;;;;;;;24.85;13.93;;;;;;;5.84;94.62;99546.00;5097858;28;20023;-75
2023/03/08 05:50:47;;;;;;;25.67;13.45;;;;;;;5.85;94.91;99528.50;5106539;28;20038;-74
2023/03/08 05:53:12;;;;;;;26.50;12.93;;;;;;;5.88;94.88;99534.09;5106202;28;20050;-74
2023/03/08 05:55:38;;;;;;;25.40;13.10;;;;;;;5.94;94.87;99551.56;5103591;28;20020;-74
2023/03/08 05:58:03;;;;;;;22.55;12.30;;;;;;;5.90;94.80;99544.31;5105625;28;20469;-74
2023/03/08 06:00:29;;;;;;;22.67;12.38;;;;;;;5.94;94.54;99551.56;5105613;28;20028;-73
2023/03/08 06:02:54;;;;;;;27.75;12.82;;;;;;;5.96;94.36;99554.75;5103768;28;20063;-72
2023/03/08 06:05:19;;;;;;;21.85;12.20;;;;;;;6.05;94.29;99554.47;5103787;28;20035;-74
2023/03/08 06:07:45;;;;;;;19.00;11.30;;;;;;;6.07;94.44;99557.66;5104861;28;20080;-72
2023/03/08 06:10:10;;;;;;;22.92;11.80;;;;;;;6.06;94.25;99562.09;5103054;28;20146;-72
2023/03/08 06:12:36;;;;;;;19.08;11.43;;;;;;;6.18;94.20;99562.19;5104335;28;20442;-73
2023/03/08 06:15:01;;;;;;;22.77;11.50;;;;;;;6.10;94.50;99547.56;5110191;27;20492;-72
2023/03/08 06:17:26;;;;;;;21.40;12.57;;;;;;;6.17;94.33;99558.75;5125321;28;20035;-73
2023/03/08 06:19:52;;;;;;;27.20;11.43;;;;;;;6.18;94.05;99560.38;5127235;28;20475;-73
2023/03/08 06:22:17;;;;;;;23.88;12.38;;;;;;;6.25;93.86;99562.09;5126185;28;20538;-72
2023/03/08 06:24:43;;;;;;;24.98;11.75;;;;;;;6.37;93.92;99589.94;5123465;27;20031;-73
2023/03/08 06:27:08;;;;;;;26.20;12.00;;;;;;;6.30;93.85;99578.75;5121868;27;20027;-73
2023/03/08 06:29:33;;;;;;;24.67;11.45;;;;;;;6.17;93.45;99571.03;5123081;27;20542;-72
2023/03/08 06:31:59;;;;;;;24.17;13.40;;;;;;;6.36;92.97;99603.22;5124578;27;20062;-72
2023/03/08 06:34:24;;;;;;;24.92;13.43;;;;;;;6.45;92.42;99617.63;5123876;27;20033;-73
2023/03/08 06:36:50;;;;;;;27.33;12.98;;;;;;;6.52;91.43;99623.59;5125705;27;20053;-73
2023/03/08 06:39:16;;;;;;;22.63;11.57;;;;;;;6.38;90.90;99585.50;5105422;28;20035;-73
2023/03/08 06:41:41;;;;;;;21.60;10.23;;;;;;;6.59;89.79;99618.28;5126193;28;20075;-72
2023/03/08 06:44:07;;;;;;;18.38;10.73;;;;;;;6.63;90.29;99624.66;5122134;27;20532;-75
2023/03/08 06:46:32;;;;;;;23.48;11.65;;;;;;;6.59;89.69;99616.47;5125124;28;20384;-74
2023/03/08 06:48:59;;;;;;;17.45;9.30;;;;;;;6.72;89.87;99622.56;5108208;28;20023;-75
2023/03/08 06:51:24;;;;;;;21.63;11.50;;;;;;;6.63;89.79;99619.44;5124648;28;20045;-75
2023/03/08 06:53:49;;;;;;;18.98;10.13;;;;;;;6.63;88.92;99613.41;5107277;28;20473;-74
2023/03/08 06:56:16;;;;;;;21.83;10.90;;;;;;;6.75;88.79;99638.66;5107952;28;20034;-75
2023/03/08 06:58:42;;;;;;;21.92;11.43;;;;;;;6.79;88.57;99641.59;5109719;27;20038;-74
2023/03/08 07:01:08;;;;;;;24.33;12.05;;;;;;;6.72;89.27;99639.06;5127139;27;20029;-75
2023/03/08 07:03:34;;;;;;;19.05;11.57;;;;;;;6.80;89.10;99651.06;5110668;27;20134;-74
2023/03/08 07:06:02;;;;;;;20.27;11.27;;;;;;;6.79;89.09;99644.22;5106072;27;20031;-75
2023/03/08 07:08:28;;;;;;;20.92;11.15;;;;;;;6.75;89.21;99629.97;5113416;27;20395;-75
2023/03/08 07:10:53;;;;;;;21.17;11.30;;;;;;;6.87;89.37;99637.91;5131176;27;20023;-75
2023/03/08 07:13:20;;;;;;;21.55;10.45;;;;;;;6.85;89.28;99630.28;5111973;27;20342;-76
2023/03/08 07:15:46;;;;;;;25.00;11.90;;;;;;;6.83;88.75;99619.22;5101017;27;20078;-77
2023/03/08 07:18:11;;;;;;;19.35;11.15;;;;;;;6.95;88.98;99635.00;5105107;27;20039;-76
2023/03/08 07:20:37;;;;;;;23.17;10.50;;;;;;;6.94;88.10;99626.34;5107230;28;20035;-75
2023/03/08 07:23:02;;;;;;;19.50;10.80;;;;;;;7.00;88.56;99637.75;5101614;28;20031;-75
2023/03/08 07:25:28;;;;;;;23.15;11.23;;;;;;;7.01;88.87;99641.97;5100905;27;20020;-75
2023/03/08 07:27:53;;;;;;;20.52;10.98;;;;;;;7.03;88.87;99640.72;5105435;28;20030;-75
2023/03/08 07:30:19;;;;;;;29.85;12.05;;;;;;;7.06;89.71;99643.91;5108774;28;20054;-75
2023/03/08 07:32:45;;;;;;;20.98;10.77;;;;;;;7.08;89.47;99644.50;5107763;27;20096;-75
2023/03/08 07:35:13;;;;;;;17.98;11.55;;;;;;;7.12;89.76;99659.56;5105654;28;20028;-76
2023/03/08 07:37:39;;;;;;;21.25;11.30;;;;;;;7.18;89.61;99653.44;5107953;28;20028;-76
2023/03/08 07:40:06;;;;;;;24.85;11.13;;;;;;;7.15;89.76;99643.38;5107325;28;20039;-75
2023/03/08 07:42:31;;;;;;;17.90;10.82;;;;;;;7.16;89.35;99654.66;5104042;28;20096;-76
2023/03/08 07:44:57;;;;;;;21.45;10.50;;;;;;;7.27;89.51;99667.00;5103855;28;20462;-77
2023/03/08 07:47:22;;;;;;;16.98;10.88;;;;;;;7.26;89.38;99670.66;5106210;28;20015;-72
2023/03/08 07:49:47;;;;;;;18.92;10.57;;;;;;;7.33;89.44;99681.84;5105711;27;20024;-75
2023/03/08 07:52:13;;;;;;;24.50;12.20;;;;;;;7.36;89.29;99681.41;5106227;28;20488;-77
2023/03/08 07:54:39;;;;;;;1875.65;407.90;;;;;;;7.46;91.74;99676.44;5106917;28;20032;-75
2023/03/08 07:57:04;;;;;;;47.03;27.85;;;;;;;7.80;91.68;99697.72;5109952;28;20019;-74
2023/03/08 07:59:30;;;;;;;31.60;18.67;;;;;;;7.67;89.84;99718.91;5108112;28;20080;-74
2023/03/08 08:01:56;;;;;;;28.25;14.13;;;;;;;7.58;89.32;99730.69;5110561;27;20019;-75
2023/03/08 08:04:22;;;;;;;28.92;14.00;;;;;;;7.50;89.33;99699.59;5108444;28;20047;-76
2023/03/08 08:06:47;;;;;;;26.35;13.40;;;;;;;7.54;88.67;99683.19;5109536;28;20545;-74
2023/03/08 08:09:13;;;;;;;24.88;12.85;;;;;;;7.50;87.43;99686.47;5104072;28;20020;-75
2023/03/08 08:11:39;;;;;;;24.85;13.45;;;;;;;7.52;87.31;99713.22;5108803;28;20479;-75
2023/03/08 08:14:04;;;;;;;32.28;15.40;;;;;;;7.60;87.75;99724.22;5106084;28;20039;-75
2023/03/08 08:16:30;;;;;;;31.88;15.10;;;;;;;7.62;88.06;99701.22;5124978;27;20076;-75
2023/03/08 08:18:56;;;;;;;28.42;13.80;;;;;;;7.51;87.83;99682.84;5128967;27;20063;-75
2023/03/08 08:21:21;;;;;;;22.33;12.63;;;;;;;7.58;88.72;99694.81;5128959;27;20433;-75
2023/03/08 08:23:47;;;;;;;29.60;16.10;;;;;;;7.67;89.30;99726.75;5128609;27;20027;-75
2023/03/08 08:26:19;;;;;;;31.13;15.27;;;;;;;7.54;89.54;99683.19;5129142;27;20075;-75
2023/03/08 08:28:47;;;;;;;29.70;14.98;;;;;;;7.70;89.90;99713.19;5100426;27;20100;-75
2023/03/08 08:31:18;;;;;;;32.03;18.13;;;;;;;7.66;89.69;99709.41;5128073;27;20019;-75
2023/03/08 08:33:44;;;;;;;36.90;18.45;;;;;;;7.47;89.61;99672.00;5127313;27;20079;-75
2023/03/08 08:36:15;;;;;;;41.35;19.30;;;;;;;7.66;89.86;99710.25;5127775;27;20015;-75
2023/03/08 08:38:42;;;;;;;30.90;15.75;;;;;;;7.72;90.00;99711.16;5127977;27;20509;-75
2023/03/08 08:41:08;;;;;;;33.97;15.90;;;;;;;7.81;90.13;99717.69;5129243;27;20408;-75
2023/03/08 08:43:35;;;;;;;29.70;15.48;;;;;;;7.86;89.84;99724.88;5127432;27;20034;-75
2023/03/08 08:46:02;;;;;;;26.27;15.38;;;;;;;7.84;89.55;99714.63;5129046;27;20025;-75
2023/03/08 08:48:28;;;;;;;38.38;19.73;;;;;;;7.89;89.46;99714.75;5123579;27;21021;-75
2023/03/08 08:50:53;;;;;;;35.67;18.45;;;;;;;7.94;89.56;99726.38;5107038;27;20047;-75
2023/03/08 08:53:20;;;;;;;45.88;19.15;;;;;;;7.97;89.60;99726.72;5127777;27;20027;-75
2023/03/08 08:55:45;;;;;;;27.10;16.00;;;;;;;7.95;89.48;99718.31;5126701;27;20027;-75
2023/03/08 08:58:11;;;;;;;30.60;16.50;;;;;;;7.93;89.48;99722.19;5126811;27;20015;-75
2023/03/08 09:00:37;;;;;;;31.42;16.63;;;;;;;8.03;89.48;99740.78;5129699;27;20035;-74
2023/03/08 09:03:03;;;;;;;27.52;16.13;;;;;;;7.99;89.49;99735.16;5110451;27;20026;-75
2023/03/08 09:05:30;;;;;;;36.97;17.48;;;;;;;8.09;89.62;99752.97;5127937;27;20424;-75
2023/03/08 09:07:57;;;;;;;34.85;18.77;;;;;;;8.09;89.44;99750.34;5128505;27;20019;-75
2023/03/08 09:10:28;;;;;;;28.67;16.02;;;;;;;8.12;90.01;99746.47;5128160;27;20023;-75
2023/03/08 09:12:53;;;;;;;33.45;15.75;;;;;;;8.12;90.04;99741.25;5108983;27;20073;-74
2023/03/08 09:15:20;;;;;;;31.48;15.95;;;;;;;8.11;90.00;99737.81;5128798;27;20070;-75
2023/03/08 09:17:46;;;;;;;30.85;14.82;;;;;;;8.11;89.77;99735.19;5110582;27;20046;-75
2023/03/08 09:20:12;;;;;;;29.73;16.20;;;;;;;7.97;90.08;99716.25;5128294;27;20038;-74
2023/03/08 09:22:37;;;;;;;30.33;16.20;;;;;;;8.20;90.57;99749.59;5127676;27;20815;-75
2023/03/08 09:25:05;;;;;;;28.45;15.70;;;;;;;8.17;90.56;99744.81;5129382;27;20034;-75
2023/03/08 09:27:30;;;;;;;28.95;14.40;;;;;;;8.22;90.91;99729.19;5128648;27;20557;-75
2023/03/08 09:29:57;;;;;;;30.67;15.43;;;;;;;8.25;90.41;99735.81;5110482;27;20121;-74
2023/03/08 09:32:22;;;;;;;30.95;15.40;;;;;;;8.24;90.51;99735.00;5127480;27;20019;-76
2023/03/08 09:34:48;;;;;;;29.33;15.13;;;;;;;8.18;90.52;99714.13;5127389;27;20137;-75
2023/03/08 09:37:13;;;;;;;26.65;13.88;;;;;;;8.23;90.06;99717.66;5107971;27;20029;-75
2023/03/08 09:39:39;;;;;;;23.05;14.05;;;;;;;8.29;90.32;99727.25;5108836;27;20046;-75
2023/03/08 09:42:13;;;;;;;27.42;14.27;;;;;;;8.35;90.19;99730.00;5127207;27;20023;-75
2023/03/08 09:45:21;;;;;;;27.80;14.30;;;;;;;8.42;90.54;99728.09;5127127;27;20050;-75
2023/03/08 09:47:49;;;;;;;24.45;14.82;;;;;;;8.42;89.09;99734.13;5114023;27;20035;-75
2023/03/08 09:50:23;;;;;;;23.55;13.77;;;;;;;8.46;89.05;99734.50;5127383;27;20035;-75
2023/03/08 09:53:03;;;;;;;23.33;14.27;;;;;;;8.48;88.63;99737.69;5126323;27;20037;-74
2023/03/08 09:55:33;;;;;;;28.40;14.98;;;;;;;8.45;88.98;99736.34;5127041;27;20109;-75
2023/03/08 09:58:16;;;;;;;22.58;13.23;;;;;;;8.60;89.00;99748.22;5126773;27;20018;-75
2023/03/08 10:00:43;;;;;;;23.73;13.10;;;;;;;8.63;87.90;99745.91;5127563;27;20481;-75
2023/03/08 10:03:46;;;;;;;23.02;12.30;;;;;;;8.66;87.19;99744.66;5127022;27;20525;-75
2023/03/08 10:06:24;;;;;;;20.75;12.35;;;;;;;8.59;87.29;99736.09;5124714;27;20031;-75
2023/03/08 10:08:55;;;;;;;22.23;12.25;;;;;;;8.68;87.58;99747.84;5126692;27;20030;-75
2023/03/08 10:11:32;;;;;;;20.50;11.93;;;;;;;8.74;88.17;99765.34;5109166;27;20019;-75
2023/03/08 10:14:01;;;;;;;21.52;12.23;;;;;;;8.76;87.84;99767.72;5125116;27;20488;-75
2023/03/08 10:16:31;;;;;;;21.80;11.40;;;;;;;8.77;88.15;99769.31;5127053;27;20070;-75
2023/03/08 10:19:26;;;;;;;23.75;12.00;;;;;;;8.83;88.13;99768.41;5126655;27;20031;-76
2023/03/08 10:21:55;;;;;;;20.85;12.50;;;;;;;8.74;88.34;99752.22;5119174;28;20031;-75
2023/03/08 10:24:30;;;;;;;20.95;12.07;;;;;;;8.81;88.06;99775.69;5127194;27;20066;-75
2023/03/08 10:27:26;;;;;;;24.15;11.93;;;;;;;8.89;88.07;99783.25;5110573;28;20073;-75
2023/03/08 10:29:54;;;;;;;23.80;12.43;;;;;;;8.91;88.07;99787.25;5124693;28;20304;-75
2023/03/08 10:32:20;;;;;;;19.25;11.18;;;;;;;8.84;88.00;99775.25;5127920;27;20053;-75
2023/03/08 10:34:46;;;;;;;17.10;10.80;;;;;;;8.93;87.69;99784.38;5131402;27;20031;-75
2023/03/08 10:37:12;;;;;;;22.48;12.85;;;;;;;8.93;87.94;99782.56;5130558;27;20079;-75
2023/03/08 10:39:52;;;;;;;22.25;12.90;;;;;;;8.98;88.16;99784.50;5127623;27;20518;-76
2023/03/08 10:42:21;;;;;;;25.27;13.52;;;;;;;9.00;88.07;99784.25;5100887;27;20023;-76
2023/03/08 10:45:13;;;;;;;25.75;12.70;;;;;;;9.01;88.00;99773.53;5113794;27;20514;-76
2023/03/08 10:47:39;;;;;;;21.90;12.68;;;;;;;8.88;88.03;99747.50;5131427;27;20043;-75
2023/03/08 10:50:12;;;;;;;24.58;12.73;;;;;;;9.01;88.04;99770.91;5111592;27;20096;-75
2023/03/08 10:52:39;;;;;;;23.80;12.85;;;;;;;8.99;88.12;99766.91;5130542;27;20039;-75
2023/03/08 10:55:27;;;;;;;23.42;12.93;;;;;;;9.02;87.74;99756.72;5095189;27;20030;-75
2023/03/08 10:58:00;;;;;;;24.48;14.07;;;;;;;9.04;87.97;99756.50;5130155;27;20865;-75
2023/03/08 11:00:33;;;;;;;23.63;14.38;;;;;;;9.09;88.24;99761.88;5129988;27;20023;-75
2023/03/08 11:03:04;;;;;;;24.20;13.57;;;;;;;9.07;89.38;99754.22;5129681;27;20052;-75
2023/03/08 11:05:30;;;;;;;25.05;13.10;;;;;;;9.00;89.24;99735.16;5113889;27;20023;-75
2023/03/08 11:07:58;;;;;;;23.80;13.65;;;;;;;9.09;89.09;99748.75;5131248;27;20533;-75
2023/03/08 11:10:26;;;;;;;23.25;12.98;;;;;;;9.08;89.50;99732.19;5131836;27;20477;-75
2023/03/08 11:13:19;;;;;;;22.95;12.50;;;;;;;9.18;90.42;99741.31;5104408;27;20059;-75
2023/03/08 11:15:54;;;;;;;29.40;13.75;;;;;;;9.15;89.38;99727.59;5130370;27;20042;-75
2023/03/08 11:18:45;;;;;;;26.27;12.50;;;;;;;9.21;88.44;99731.13;5130389;27;20026;-75
2023/03/08 11:21:28;;;;;;;21.75;12.15;;;;;;;9.22;88.36;99726.66;5082944;27;20551;-75
2023/03/08 11:24:17;;;;;;;19.17;11.70;;;;;;;9.27;88.17;99716.28;5131229;27;20023;-75